sensor_id;sensor_type;location;lat;lon;timestamp;P1;durP1;ratioP1;P2;durP2;ratioP2
65581;SDS011;52231;40.090;18.348;2023-02-22T00:02:02;45.80;;;27.90;;
65581;SDS011;52231;40.090;18.348;2023-02-22T00:04:52;44.60;;;27.98;;
65581;SDS011;52231;40.090;18.348;2023-02-22T00:07:20;47.42;;;27.90;;
65581;SDS011;52231;40.090;18.348;2023-02-22T00:09:50;45.10;;;27.40;;
65581;SDS011;52231;40.090;18.348;2023-02-22T00:12:18;50.58;;;28.38;;
65581;SDS011;52231;40.090;18.348;2023-02-22T00:14:46;46.53;;;28.63;;
65581;SDS011;52231;40.090;18.348;2023-02-22T00:17:15;47.65;;;28.38;;
65581;SDS011;52231;40.090;18.348;2023-02-22T00:19:43;45.15;;;29.60;;
65581;SDS011;52231;40.090;18.348;2023-02-22T00:22:11;48.33;;;28.58;;
65581;SDS011;52231;40.090;18.348;2023-02-22T00:24:39;48.42;;;27.52;;
65581;SDS011;52231;40.090;18.348;2023-02-22T00:27:07;52.70;;;31.77;;
65581;SDS011;52231;40.090;18.348;2023-02-22T00:29:36;53.63;;;31.70;;
65581;SDS011;52231;40.090;18.348;2023-02-22T00:32:05;54.83;;;31.17;;
65581;SDS011;52231;40.090;18.348;2023-02-22T00:34:33;58.78;;;32.05;;
65581;SDS011;52231;40.090;18.348;2023-02-22T00:37:01;59.33;;;32.13;;
65581;SDS011;52231;40.090;18.348;2023-02-22T00:39:30;64.57;;;33.13;;
65581;SDS011;52231;40.090;18.348;2023-02-22T00:41:58;60.30;;;31.20;;
65581;SDS011;52231;40.090;18.348;2023-02-22T00:44:28;51.30;;;31.10;;
65581;SDS011;52231;40.090;18.348;2023-02-22T00:46:57;56.60;;;31.77;;
65581;SDS011;52231;40.090;18.348;2023-02-22T00:49:25;62.08;;;34.30;;
65581;SDS011;52231;40.090;18.348;2023-02-22T00:51:53;61.22;;;34.78;;
65581;SDS011;52231;40.090;18.348;2023-02-22T00:54:21;64.88;;;35.30;;
65581;SDS011;52231;40.090;18.348;2023-02-22T00:56:49;58.67;;;34.10;;
65581;SDS011;52231;40.090;18.348;2023-02-22T00:59:18;54.85;;;32.25;;
65581;SDS011;52231;40.090;18.348;2023-02-22T01:01:46;62.15;;;31.65;;
65581;SDS011;52231;40.090;18.348;2023-02-22T01:04:14;61.70;;;34.25;;
65581;SDS011;52231;40.090;18.348;2023-02-22T01:06:42;59.53;;;32.13;;
65581;SDS011;52231;40.090;18.348;2023-02-22T01:09:11;59.17;;;31.85;;
65581;SDS011;52231;40.090;18.348;2023-02-22T01:11:40;55.00;;;32.42;;
65581;SDS011;52231;40.090;18.348;2023-02-22T01:14:08;59.35;;;33.35;;
65581;SDS011;52231;40.090;18.348;2023-02-22T01:16:38;60.88;;;31.17;;
65581;SDS011;52231;40.090;18.348;2023-02-22T01:19:06;55.92;;;32.90;;
65581;SDS011;52231;40.090;18.348;2023-02-22T01:21:34;58.60;;;31.48;;
65581;SDS011;52231;40.090;18.348;2023-02-22T01:24:02;57.28;;;32.63;;
65581;SDS011;52231;40.090;18.348;2023-02-22T01:26:31;58.80;;;34.10;;
65581;SDS011;52231;40.090;18.348;2023-02-22T01:28:59;60.80;;;33.25;;
65581;SDS011;52231;40.090;18.348;2023-02-22T01:31:27;66.95;;;39.13;;
65581;SDS011;52231;40.090;18.348;2023-02-22T01:33:55;67.28;;;38.95;;
65581;SDS011;52231;40.090;18.348;2023-02-22T01:36:23;60.28;;;35.97;;
65581;SDS011;52231;40.090;18.348;2023-02-22T01:38:51;67.75;;;36.92;;
65581;SDS011;52231;40.090;18.348;2023-02-22T01:41:19;65.57;;;35.25;;
65581;SDS011;52231;40.090;18.348;2023-02-22T01:43:49;66.93;;;35.85;;
65581;SDS011;52231;40.090;18.348;2023-02-22T01:48:57;58.85;;;32.70;;
65581;SDS011;52231;40.090;18.348;2023-02-22T01:51:30;63.22;;;34.17;;
65581;SDS011;52231;40.090;18.348;2023-02-22T01:54:08;61.00;;;33.10;;
65581;SDS011;52231;40.090;18.348;2023-02-22T01:56:48;55.75;;;33.38;;
65581;SDS011;52231;40.090;18.348;2023-02-22T01:59:27;60.05;;;34.25;;
65581;SDS011;52231;40.090;18.348;2023-02-22T02:01:59;58.05;;;33.30;;
65581;SDS011;52231;40.090;18.348;2023-02-22T02:07:02;62.53;;;33.05;;
65581;SDS011;52231;40.090;18.348;2023-02-22T02:09:36;63.25;;;33.50;;
65581;SDS011;52231;40.090;18.348;2023-02-22T02:12:10;64.03;;;35.90;;
65581;SDS011;52231;40.090;18.348;2023-02-22T02:14:41;63.28;;;32.95;;
65581;SDS011;52231;40.090;18.348;2023-02-22T02:17:11;76.85;;;35.25;;
65581;SDS011;52231;40.090;18.348;2023-02-22T02:22:42;89.15;;;39.78;;
65581;SDS011;52231;40.090;18.348;2023-02-22T02:34:04;92.45;;;39.00;;
65581;SDS011;52231;40.090;18.348;2023-02-22T02:36:45;85.35;;;37.50;;
65581;SDS011;52231;40.090;18.348;2023-02-22T02:39:40;85.93;;;38.10;;
65581;SDS011;52231;40.090;18.348;2023-02-22T02:42:15;87.00;;;37.13;;
65581;SDS011;52231;40.090;18.348;2023-02-22T02:44:53;93.80;;;39.47;;
65581;SDS011;52231;40.090;18.348;2023-02-22T02:47:27;86.75;;;39.22;;
65581;SDS011;52231;40.090;18.348;2023-02-22T02:52:36;99.80;;;41.15;;
65581;SDS011;52231;40.090;18.348;2023-02-22T02:55:07;92.15;;;39.63;;
65581;SDS011;52231;40.090;18.348;2023-02-22T02:57:40;92.72;;;42.08;;
65581;SDS011;52231;40.090;18.348;2023-02-22T03:00:08;105.10;;;42.88;;
65581;SDS011;52231;40.090;18.348;2023-02-22T03:11:49;90.65;;;40.28;;
65581;SDS011;52231;40.090;18.348;2023-02-22T03:17:18;84.13;;;39.00;;
65581;SDS011;52231;40.090;18.348;2023-02-22T03:20:06;91.95;;;40.60;;
65581;SDS011;52231;40.090;18.348;2023-02-22T03:22:57;86.60;;;40.92;;
65581;SDS011;52231;40.090;18.348;2023-02-22T03:25:42;81.05;;;40.05;;
65581;SDS011;52231;40.090;18.348;2023-02-22T03:28:19;84.90;;;40.70;;
65581;SDS011;52231;40.090;18.348;2023-02-22T03:33:45;75.85;;;36.08;;
65581;SDS011;52231;40.090;18.348;2023-02-22T03:36:19;70.75;;;34.72;;
65581;SDS011;52231;40.090;18.348;2023-02-22T03:38:53;71.03;;;33.47;;
65581;SDS011;52231;40.090;18.348;2023-02-22T03:41:24;63.67;;;31.90;;
65581;SDS011;52231;40.090;18.348;2023-02-22T03:44:03;63.03;;;29.15;;
65581;SDS011;52231;40.090;18.348;2023-02-22T03:46:37;66.10;;;28.65;;
65581;SDS011;52231;40.090;18.348;2023-02-22T03:50:10;60.58;;;26.95;;
65581;SDS011;52231;40.090;18.348;2023-02-22T03:52:09;60.22;;;28.25;;
65581;SDS011;52231;40.090;18.348;2023-02-22T03:54:40;59.90;;;28.38;;
65581;SDS011;52231;40.090;18.348;2023-02-22T03:57:13;80.75;;;34.03;;
65581;SDS011;52231;40.090;18.348;2023-02-22T03:59:52;71.57;;;32.17;;
65581;SDS011;52231;40.090;18.348;2023-02-22T04:02:21;74.40;;;35.10;;
65581;SDS011;52231;40.090;18.348;2023-02-22T04:04:50;82.68;;;36.10;;
65581;SDS011;52231;40.090;18.348;2023-02-22T04:07:18;87.47;;;38.33;;
65581;SDS011;52231;40.090;18.348;2023-02-22T04:09:48;94.03;;;39.58;;
65581;SDS011;52231;40.090;18.348;2023-02-22T04:12:17;85.13;;;39.20;;
65581;SDS011;52231;40.090;18.348;2023-02-22T04:14:59;82.65;;;37.63;;
65581;SDS011;52231;40.090;18.348;2023-02-22T04:17:27;87.43;;;39.33;;
65581;SDS011;52231;40.090;18.348;2023-02-22T04:19:57;86.32;;;40.33;;
65581;SDS011;52231;40.090;18.348;2023-02-22T04:22:31;84.32;;;39.55;;
65581;SDS011;52231;40.090;18.348;2023-02-22T04:24:59;92.55;;;39.17;;
65581;SDS011;52231;40.090;18.348;2023-02-22T04:27:28;101.20;;;37.78;;
65581;SDS011;52231;40.090;18.348;2023-02-22T04:29:56;96.32;;;39.45;;
65581;SDS011;52231;40.090;18.348;2023-02-22T04:32:25;92.20;;;37.80;;
65581;SDS011;52231;40.090;18.348;2023-02-22T04:34:54;93.20;;;36.38;;
65581;SDS011;52231;40.090;18.348;2023-02-22T04:37:23;79.00;;;31.55;;
65581;SDS011;52231;40.090;18.348;2023-02-22T04:39:52;75.45;;;33.28;;
65581;SDS011;52231;40.090;18.348;2023-02-22T04:42:20;84.13;;;34.53;;
65581;SDS011;52231;40.090;18.348;2023-02-22T04:47:21;51.60;;;20.58;;
65581;SDS011;52231;40.090;18.348;2023-02-22T04:49:50;50.60;;;23.23;;
65581;SDS011;52231;40.090;18.348;2023-02-22T04:52:18;50.20;;;21.65;;
65581;SDS011;52231;40.090;18.348;2023-02-22T04:54:47;50.50;;;22.90;;
65581;SDS011;52231;40.090;18.348;2023-02-22T04:57:15;51.50;;;20.85;;
65581;SDS011;52231;40.090;18.348;2023-02-22T04:59:43;54.25;;;23.98;;
65581;SDS011;52231;40.090;18.348;2023-02-22T05:02:12;67.47;;;26.23;;
65581;SDS011;52231;40.090;18.348;2023-02-22T05:04:40;63.33;;;25.75;;
65581;SDS011;52231;40.090;18.348;2023-02-22T05:07:08;57.38;;;25.10;;
65581;SDS011;52231;40.090;18.348;2023-02-22T05:09:37;51.75;;;23.13;;
65581;SDS011;52231;40.090;18.348;2023-02-22T05:12:05;52.50;;;22.27;;
65581;SDS011;52231;40.090;18.348;2023-02-22T05:17:05;40.03;;;19.27;;
65581;SDS011;52231;40.090;18.348;2023-02-22T05:19:34;41.97;;;19.55;;
65581;SDS011;52231;40.090;18.348;2023-02-22T05:22:02;45.05;;;19.75;;
65581;SDS011;52231;40.090;18.348;2023-02-22T05:24:32;48.67;;;21.73;;
65581;SDS011;52231;40.090;18.348;2023-02-22T05:27:01;46.22;;;20.98;;
65581;SDS011;52231;40.090;18.348;2023-02-22T05:29:29;43.67;;;19.65;;
65581;SDS011;52231;40.090;18.348;2023-02-22T05:31:57;47.17;;;22.15;;
65581;SDS011;52231;40.090;18.348;2023-02-22T05:34:26;44.70;;;20.83;;
65581;SDS011;52231;40.090;18.348;2023-02-22T05:36:54;43.72;;;20.25;;
65581;SDS011;52231;40.090;18.348;2023-02-22T05:39:22;46.53;;;21.33;;
65581;SDS011;52231;40.090;18.348;2023-02-22T05:41:50;42.95;;;19.92;;
65581;SDS011;52231;40.090;18.348;2023-02-22T05:44:19;40.65;;;20.00;;
65581;SDS011;52231;40.090;18.348;2023-02-22T05:46:47;43.25;;;20.38;;
65581;SDS011;52231;40.090;18.348;2023-02-22T05:49:15;44.83;;;21.85;;
65581;SDS011;52231;40.090;18.348;2023-02-22T05:51:44;41.15;;;20.70;;
65581;SDS011;52231;40.090;18.348;2023-02-22T05:54:13;41.88;;;21.60;;
65581;SDS011;52231;40.090;18.348;2023-02-22T05:56:41;41.03;;;21.33;;
65581;SDS011;52231;40.090;18.348;2023-02-22T05:59:09;42.65;;;22.35;;
65581;SDS011;52231;40.090;18.348;2023-02-22T06:01:37;47.40;;;22.15;;
65581;SDS011;52231;40.090;18.348;2023-02-22T06:04:05;46.03;;;22.60;;
65581;SDS011;52231;40.090;18.348;2023-02-22T06:06:34;42.28;;;21.17;;
65581;SDS011;52231;40.090;18.348;2023-02-22T06:09:02;44.50;;;21.80;;
65581;SDS011;52231;40.090;18.348;2023-02-22T06:11:30;46.80;;;23.40;;
65581;SDS011;52231;40.090;18.348;2023-02-22T06:13:58;53.35;;;26.65;;
65581;SDS011;52231;40.090;18.348;2023-02-22T06:16:26;57.42;;;28.67;;
65581;SDS011;52231;40.090;18.348;2023-02-22T06:18:55;55.42;;;30.10;;
65581;SDS011;52231;40.090;18.348;2023-02-22T06:21:24;59.05;;;29.85;;
65581;SDS011;52231;40.090;18.348;2023-02-22T06:23:53;61.20;;;29.98;;
65581;SDS011;52231;40.090;18.348;2023-02-22T06:26:21;56.33;;;30.02;;
65581;SDS011;52231;40.090;18.348;2023-02-22T06:28:49;59.85;;;31.20;;
65581;SDS011;52231;40.090;18.348;2023-02-22T06:31:17;63.10;;;31.67;;
65581;SDS011;52231;40.090;18.348;2023-02-22T06:33:46;60.50;;;31.33;;
65581;SDS011;52231;40.090;18.348;2023-02-22T06:36:14;53.40;;;28.88;;
65581;SDS011;52231;40.090;18.348;2023-02-22T06:38:42;52.78;;;27.88;;
65581;SDS011;52231;40.090;18.348;2023-02-22T06:41:10;49.33;;;27.85;;
65581;SDS011;52231;40.090;18.348;2023-02-22T06:43:39;50.97;;;27.48;;
65581;SDS011;52231;40.090;18.348;2023-02-22T06:46:10;50.53;;;29.02;;
65581;SDS011;52231;40.090;18.348;2023-02-22T06:48:39;50.10;;;25.95;;
65581;SDS011;52231;40.090;18.348;2023-02-22T06:51:07;43.05;;;25.02;;
65581;SDS011;52231;40.090;18.348;2023-02-22T06:53:36;46.25;;;24.30;;
65581;SDS011;52231;40.090;18.348;2023-02-22T06:56:04;43.83;;;25.25;;
65581;SDS011;52231;40.090;18.348;2023-02-22T06:58:33;47.45;;;25.30;;
65581;SDS011;52231;40.090;18.348;2023-02-22T07:01:01;46.22;;;26.13;;
65581;SDS011;52231;40.090;18.348;2023-02-22T07:03:30;45.42;;;27.25;;
65581;SDS011;52231;40.090;18.348;2023-02-22T07:05:58;48.40;;;28.77;;
65581;SDS011;52231;40.090;18.348;2023-02-22T07:08:27;45.58;;;26.38;;
65581;SDS011;52231;40.090;18.348;2023-02-22T07:10:55;44.67;;;23.92;;
65581;SDS011;52231;40.090;18.348;2023-02-22T07:13:24;45.78;;;22.70;;
65581;SDS011;52231;40.090;18.348;2023-02-22T07:15:52;41.58;;;24.00;;
65581;SDS011;52231;40.090;18.348;2023-02-22T07:18:21;40.47;;;23.90;;
65581;SDS011;52231;40.090;18.348;2023-02-22T07:20:50;46.58;;;26.50;;
65581;SDS011;52231;40.090;18.348;2023-02-22T07:23:19;45.13;;;25.05;;
65581;SDS011;52231;40.090;18.348;2023-02-22T07:28:15;44.65;;;25.35;;
65581;SDS011;52231;40.090;18.348;2023-02-22T07:30:43;44.15;;;25.35;;
65581;SDS011;52231;40.090;18.348;2023-02-22T07:33:12;48.63;;;26.90;;
65581;SDS011;52231;40.090;18.348;2023-02-22T07:35:47;50.00;;;27.50;;
65581;SDS011;52231;40.090;18.348;2023-02-22T07:38:17;48.70;;;26.98;;
65581;SDS011;52231;40.090;18.348;2023-02-22T07:40:46;46.53;;;26.15;;
65581;SDS011;52231;40.090;18.348;2023-02-22T07:43:16;49.17;;;27.88;;
65581;SDS011;52231;40.090;18.348;2023-02-22T07:45:49;49.45;;;27.75;;
65581;SDS011;52231;40.090;18.348;2023-02-22T07:48:18;46.15;;;25.23;;
65581;SDS011;52231;40.090;18.348;2023-02-22T07:50:48;45.90;;;25.60;;
65581;SDS011;52231;40.090;18.348;2023-02-22T07:53:20;46.70;;;26.90;;
65581;SDS011;52231;40.090;18.348;2023-02-22T07:55:50;47.10;;;25.58;;
65581;SDS011;52231;40.090;18.348;2023-02-22T07:58:21;42.85;;;25.55;;
65581;SDS011;52231;40.090;18.348;2023-02-22T08:00:51;45.80;;;26.55;;
65581;SDS011;52231;40.090;18.348;2023-02-22T08:03:21;42.58;;;25.40;;
65581;SDS011;52231;40.090;18.348;2023-02-22T08:05:52;43.55;;;24.98;;
65581;SDS011;52231;40.090;18.348;2023-02-22T08:08:22;38.83;;;22.98;;
65581;SDS011;52231;40.090;18.348;2023-02-22T08:13:19;29.17;;;17.55;;
65581;SDS011;52231;40.090;18.348;2023-02-22T08:15:49;21.52;;;11.90;;
65581;SDS011;52231;40.090;18.348;2023-02-22T08:18:20;19.48;;;12.00;;
65581;SDS011;52231;40.090;18.348;2023-02-22T08:20:50;19.38;;;11.18;;
65581;SDS011;52231;40.090;18.348;2023-02-22T08:23:21;17.92;;;10.25;;
65581;SDS011;52231;40.090;18.348;2023-02-22T08:25:52;19.17;;;11.18;;
65581;SDS011;52231;40.090;18.348;2023-02-22T08:28:21;19.52;;;10.57;;
65581;SDS011;52231;40.090;18.348;2023-02-22T08:30:50;21.85;;;10.80;;
65581;SDS011;52231;40.090;18.348;2023-02-22T08:33:19;17.10;;;9.93;;
65581;SDS011;52231;40.090;18.348;2023-02-22T08:35:48;18.25;;;9.88;;
65581;SDS011;52231;40.090;18.348;2023-02-22T08:38:18;18.48;;;9.55;;
65581;SDS011;52231;40.090;18.348;2023-02-22T08:40:51;17.17;;;9.90;;
65581;SDS011;52231;40.090;18.348;2023-02-22T08:45:48;16.98;;;10.15;;
65581;SDS011;52231;40.090;18.348;2023-02-22T08:48:18;21.13;;;10.93;;
65581;SDS011;52231;40.090;18.348;2023-02-22T08:50:47;21.83;;;11.10;;
65581;SDS011;52231;40.090;18.348;2023-02-22T08:53:16;19.25;;;10.88;;
65581;SDS011;52231;40.090;18.348;2023-02-22T08:55:45;21.15;;;10.93;;
65581;SDS011;52231;40.090;18.348;2023-02-22T08:58:13;21.30;;;11.80;;
65581;SDS011;52231;40.090;18.348;2023-02-22T09:03:12;21.33;;;11.60;;
65581;SDS011;52231;40.090;18.348;2023-02-22T09:05:41;18.45;;;10.82;;
65581;SDS011;52231;40.090;18.348;2023-02-22T09:08:11;28.23;;;14.50;;
65581;SDS011;52231;40.090;18.348;2023-02-22T09:10:39;19.08;;;10.25;;
65581;SDS011;52231;40.090;18.348;2023-02-22T09:13:07;17.85;;;10.13;;
65581;SDS011;52231;40.090;18.348;2023-02-22T09:15:36;16.13;;;9.35;;
65581;SDS011;52231;40.090;18.348;2023-02-22T09:18:06;17.50;;;9.10;;
65581;SDS011;52231;40.090;18.348;2023-02-22T09:20:37;16.85;;;9.60;;
65581;SDS011;52231;40.090;18.348;2023-02-22T09:23:08;13.85;;;8.68;;
65581;SDS011;52231;40.090;18.348;2023-02-22T09:25:37;15.00;;;7.30;;
65581;SDS011;52231;40.090;18.348;2023-02-22T09:28:07;14.25;;;7.47;;
65581;SDS011;52231;40.090;18.348;2023-02-22T09:33:05;12.68;;;6.65;;
65581;SDS011;52231;40.090;18.348;2023-02-22T09:35:38;13.50;;;6.97;;
65581;SDS011;52231;40.090;18.348;2023-02-22T09:40:44;13.02;;;7.55;;
65581;SDS011;52231;40.090;18.348;2023-02-22T09:48:27;13.00;;;6.22;;
65581;SDS011;52231;40.090;18.348;2023-02-22T09:50:59;12.25;;;5.93;;
65581;SDS011;52231;40.090;18.348;2023-02-22T09:53:37;12.80;;;6.82;;
65581;SDS011;52231;40.090;18.348;2023-02-22T09:56:10;15.50;;;7.32;;
65581;SDS011;52231;40.090;18.348;2023-02-22T09:58:45;13.38;;;6.80;;
65581;SDS011;52231;40.090;18.348;2023-02-22T10:01:32;15.10;;;7.60;;
65581;SDS011;52231;40.090;18.348;2023-02-22T10:09:39;13.40;;;6.72;;
65581;SDS011;52231;40.090;18.348;2023-02-22T10:12:14;13.25;;;6.70;;
65581;SDS011;52231;40.090;18.348;2023-02-22T10:14:47;12.50;;;6.40;;
65581;SDS011;52231;40.090;18.348;2023-02-22T10:17:37;11.57;;;6.40;;
65581;SDS011;52231;40.090;18.348;2023-02-22T10:23:03;12.63;;;5.95;;
65581;SDS011;52231;40.090;18.348;2023-02-22T10:25:39;12.15;;;6.85;;
65581;SDS011;52231;40.090;18.348;2023-02-22T10:30:49;11.93;;;7.18;;
65581;SDS011;52231;40.090;18.348;2023-02-22T10:33:28;13.90;;;6.93;;
65581;SDS011;52231;40.090;18.348;2023-02-22T10:36:03;11.68;;;6.65;;
65581;SDS011;52231;40.090;18.348;2023-02-22T10:38:32;13.13;;;7.72;;
65581;SDS011;52231;40.090;18.348;2023-02-22T10:43:36;14.50;;;7.70;;
65581;SDS011;52231;40.090;18.348;2023-02-22T10:46:08;10.98;;;6.07;;
65581;SDS011;52231;40.090;18.348;2023-02-22T10:48:40;13.20;;;6.80;;
65581;SDS011;52231;40.090;18.348;2023-02-22T10:51:11;13.18;;;6.10;;
65581;SDS011;52231;40.090;18.348;2023-02-22T10:53:40;20.90;;;11.75;;
65581;SDS011;52231;40.090;18.348;2023-02-22T10:59:10;13.77;;;7.80;;
65581;SDS011;52231;40.090;18.348;2023-02-22T11:09:47;12.38;;;7.35;;
65581;SDS011;52231;40.090;18.348;2023-02-22T11:12:24;13.88;;;7.47;;
65581;SDS011;52231;40.090;18.348;2023-02-22T11:14:54;13.48;;;6.95;;
65581;SDS011;52231;40.090;18.348;2023-02-22T11:17:26;13.85;;;7.63;;
65581;SDS011;52231;40.090;18.348;2023-02-22T11:19:57;13.35;;;8.00;;
65581;SDS011;52231;40.090;18.348;2023-02-22T11:22:36;14.27;;;8.68;;
65581;SDS011;52231;40.090;18.348;2023-02-22T11:25:16;14.55;;;8.00;;
65581;SDS011;52231;40.090;18.348;2023-02-22T11:27:48;13.90;;;9.13;;
65581;SDS011;52231;40.090;18.348;2023-02-22T11:30:20;12.85;;;7.40;;
65581;SDS011;52231;40.090;18.348;2023-02-22T11:38:23;11.00;;;6.57;;
65581;SDS011;52231;40.090;18.348;2023-02-22T11:41:04;12.13;;;6.72;;
65581;SDS011;52231;40.090;18.348;2023-02-22T11:43:37;12.02;;;6.10;;
65581;SDS011;52231;40.090;18.348;2023-02-22T11:46:08;13.30;;;6.43;;
65581;SDS011;52231;40.090;18.348;2023-02-22T11:48:40;13.25;;;6.70;;
65581;SDS011;52231;40.090;18.348;2023-02-22T11:51:16;12.52;;;6.18;;
65581;SDS011;52231;40.090;18.348;2023-02-22T11:56:35;13.35;;;6.13;;
65581;SDS011;52231;40.090;18.348;2023-02-22T12:05:11;12.90;;;6.57;;
65581;SDS011;52231;40.090;18.348;2023-02-22T12:08:19;11.70;;;6.25;;
65581;SDS011;52231;40.090;18.348;2023-02-22T12:11:16;11.45;;;5.80;;
65581;SDS011;52231;40.090;18.348;2023-02-22T12:20:03;11.60;;;6.10;;
65581;SDS011;52231;40.090;18.348;2023-02-22T12:25:40;13.70;;;6.47;;
65581;SDS011;52231;40.090;18.348;2023-02-22T12:28:35;13.93;;;6.60;;
65581;SDS011;52231;40.090;18.348;2023-02-22T12:31:29;13.05;;;6.65;;
65581;SDS011;52231;40.090;18.348;2023-02-22T12:34:06;13.73;;;6.72;;
65581;SDS011;52231;40.090;18.348;2023-02-22T12:36:52;12.63;;;6.60;;
65581;SDS011;52231;40.090;18.348;2023-02-22T12:51:24;13.77;;;6.95;;
65581;SDS011;52231;40.090;18.348;2023-02-22T12:53:56;14.02;;;6.82;;
65581;SDS011;52231;40.090;18.348;2023-02-22T12:56:42;15.30;;;7.28;;
65581;SDS011;52231;40.090;18.348;2023-02-22T13:05:02;15.23;;;8.60;;
65581;SDS011;52231;40.090;18.348;2023-02-22T13:07:49;13.90;;;6.75;;
65581;SDS011;52231;40.090;18.348;2023-02-22T13:10:27;14.30;;;7.95;;
65581;SDS011;52231;40.090;18.348;2023-02-22T13:18:51;13.23;;;7.57;;
65581;SDS011;52231;40.090;18.348;2023-02-22T13:27:47;14.50;;;8.30;;
65581;SDS011;52231;40.090;18.348;2023-02-22T13:30:39;16.98;;;8.32;;
65581;SDS011;52231;40.090;18.348;2023-02-22T13:33:21;14.20;;;7.47;;
65581;SDS011;52231;40.090;18.348;2023-02-22T13:36:24;16.42;;;8.93;;
65581;SDS011;52231;40.090;18.348;2023-02-22T13:44:08;15.90;;;9.43;;
65581;SDS011;52231;40.090;18.348;2023-02-22T13:46:43;15.40;;;9.32;;
65581;SDS011;52231;40.090;18.348;2023-02-22T13:52:17;15.30;;;7.97;;
65581;SDS011;52231;40.090;18.348;2023-02-22T13:55:07;14.45;;;8.65;;
65581;SDS011;52231;40.090;18.348;2023-02-22T13:57:50;16.38;;;8.60;;
65581;SDS011;52231;40.090;18.348;2023-02-22T14:05:46;18.77;;;9.88;;
65581;SDS011;52231;40.090;18.348;2023-02-22T14:10:49;18.40;;;9.02;;
65581;SDS011;52231;40.090;18.348;2023-02-22T14:13:21;15.52;;;8.80;;
65581;SDS011;52231;40.090;18.348;2023-02-22T14:21:10;16.08;;;8.77;;
65581;SDS011;52231;40.090;18.348;2023-02-22T14:23:44;16.40;;;8.27;;
65581;SDS011;52231;40.090;18.348;2023-02-22T14:34:12;15.38;;;8.27;;
65581;SDS011;52231;40.090;18.348;2023-02-22T14:36:58;15.32;;;8.75;;
65581;SDS011;52231;40.090;18.348;2023-02-22T14:47:40;20.95;;;11.07;;
65581;SDS011;52231;40.090;18.348;2023-02-22T14:50:13;18.58;;;9.65;;
65581;SDS011;52231;40.090;18.348;2023-02-22T14:55:46;21.75;;;11.70;;
65581;SDS011;52231;40.090;18.348;2023-02-22T15:01:15;24.10;;;13.45;;
65581;SDS011;52231;40.090;18.348;2023-02-22T15:03:46;24.67;;;13.48;;
65581;SDS011;52231;40.090;18.348;2023-02-22T15:06:23;30.13;;;15.20;;
65581;SDS011;52231;40.090;18.348;2023-02-22T15:09:10;28.88;;;15.05;;
65581;SDS011;52231;40.090;18.348;2023-02-22T15:11:47;27.92;;;14.60;;
65581;SDS011;52231;40.090;18.348;2023-02-22T15:14:20;27.90;;;15.63;;
65581;SDS011;52231;40.090;18.348;2023-02-22T15:16:54;27.45;;;15.60;;
65581;SDS011;52231;40.090;18.348;2023-02-22T15:19:28;28.08;;;15.98;;
65581;SDS011;52231;40.090;18.348;2023-02-22T15:22:01;25.52;;;13.35;;
65581;SDS011;52231;40.090;18.348;2023-02-22T15:24:31;23.92;;;13.70;;
65581;SDS011;52231;40.090;18.348;2023-02-22T15:27:06;23.90;;;13.27;;
65581;SDS011;52231;40.090;18.348;2023-02-22T15:29:49;24.90;;;13.57;;
65581;SDS011;52231;40.090;18.348;2023-02-22T15:32:33;27.35;;;14.13;;
65581;SDS011;52231;40.090;18.348;2023-02-22T15:35:13;24.75;;;13.73;;
65581;SDS011;52231;40.090;18.348;2023-02-22T15:37:58;24.05;;;13.23;;
65581;SDS011;52231;40.090;18.348;2023-02-22T15:40:27;23.50;;;14.40;;
65581;SDS011;52231;40.090;18.348;2023-02-22T15:43:18;23.40;;;13.07;;
65581;SDS011;52231;40.090;18.348;2023-02-22T15:45:54;24.23;;;13.45;;
65581;SDS011;52231;40.090;18.348;2023-02-22T15:48:25;23.15;;;12.60;;
65581;SDS011;52231;40.090;18.348;2023-02-22T15:53:35;19.48;;;10.40;;
65581;SDS011;52231;40.090;18.348;2023-02-22T15:56:23;21.42;;;11.27;;
65581;SDS011;52231;40.090;18.348;2023-02-22T15:59:15;18.23;;;10.27;;
65581;SDS011;52231;40.090;18.348;2023-02-22T16:01:48;16.83;;;9.13;;
65581;SDS011;52231;40.090;18.348;2023-02-22T16:04:20;13.75;;;7.97;;
65581;SDS011;52231;40.090;18.348;2023-02-22T16:06:51;13.48;;;8.05;;
65581;SDS011;52231;40.090;18.348;2023-02-22T16:09:28;15.10;;;8.25;;
65581;SDS011;52231;40.090;18.348;2023-02-22T16:12:33;14.43;;;8.18;;
65581;SDS011;52231;40.090;18.348;2023-02-22T16:14:56;15.07;;;8.07;;
65581;SDS011;52231;40.090;18.348;2023-02-22T16:17:38;15.63;;;7.80;;
65581;SDS011;52231;40.090;18.348;2023-02-22T16:22:57;15.30;;;8.15;;
65581;SDS011;52231;40.090;18.348;2023-02-22T16:25:32;16.17;;;8.52;;
65581;SDS011;52231;40.090;18.348;2023-02-22T16:28:03;15.23;;;7.85;;
65581;SDS011;52231;40.090;18.348;2023-02-22T16:34:13;14.93;;;8.73;;
65581;SDS011;52231;40.090;18.348;2023-02-22T16:36:46;13.73;;;7.20;;
65581;SDS011;52231;40.090;18.348;2023-02-22T16:39:26;12.90;;;7.38;;
65581;SDS011;52231;40.090;18.348;2023-02-22T16:42:02;15.25;;;7.78;;
65581;SDS011;52231;40.090;18.348;2023-02-22T16:44:31;16.23;;;7.65;;
65581;SDS011;52231;40.090;18.348;2023-02-22T16:47:01;14.43;;;8.27;;
65581;SDS011;52231;40.090;18.348;2023-02-22T16:49:29;14.63;;;7.47;;
65581;SDS011;52231;40.090;18.348;2023-02-22T16:51:58;14.32;;;8.20;;
65581;SDS011;52231;40.090;18.348;2023-02-22T16:54:32;14.27;;;7.90;;
65581;SDS011;52231;40.090;18.348;2023-02-22T16:57:05;14.48;;;7.78;;
65581;SDS011;52231;40.090;18.348;2023-02-22T17:02:06;12.48;;;7.35;;
65581;SDS011;52231;40.090;18.348;2023-02-22T17:04:46;13.23;;;7.70;;
65581;SDS011;52231;40.090;18.348;2023-02-22T17:07:17;16.30;;;8.38;;
65581;SDS011;52231;40.090;18.348;2023-02-22T17:09:51;15.02;;;8.05;;
65581;SDS011;52231;40.090;18.348;2023-02-22T17:12:19;15.68;;;8.23;;
65581;SDS011;52231;40.090;18.348;2023-02-22T17:14:49;15.63;;;8.25;;
65581;SDS011;52231;40.090;18.348;2023-02-22T17:17:17;15.20;;;8.10;;
65581;SDS011;52231;40.090;18.348;2023-02-22T17:19:45;13.85;;;8.00;;
65581;SDS011;52231;40.090;18.348;2023-02-22T17:22:20;15.82;;;8.57;;
65581;SDS011;52231;40.090;18.348;2023-02-22T17:24:49;16.50;;;8.38;;
65581;SDS011;52231;40.090;18.348;2023-02-22T17:27:18;15.52;;;8.43;;
65581;SDS011;52231;40.090;18.348;2023-02-22T17:29:47;14.27;;;8.50;;
65581;SDS011;52231;40.090;18.348;2023-02-22T17:32:17;14.57;;;8.55;;
65581;SDS011;52231;40.090;18.348;2023-02-22T17:34:45;16.40;;;9.35;;
65581;SDS011;52231;40.090;18.348;2023-02-22T17:37:16;17.95;;;9.70;;
65581;SDS011;52231;40.090;18.348;2023-02-22T17:39:46;16.65;;;9.48;;
65581;SDS011;52231;40.090;18.348;2023-02-22T17:42:14;17.55;;;9.27;;
65581;SDS011;52231;40.090;18.348;2023-02-22T17:44:42;17.38;;;9.60;;
65581;SDS011;52231;40.090;18.348;2023-02-22T17:47:10;17.00;;;9.60;;
65581;SDS011;52231;40.090;18.348;2023-02-22T17:49:38;18.65;;;11.00;;
65581;SDS011;52231;40.090;18.348;2023-02-22T17:52:07;18.95;;;9.15;;
65581;SDS011;52231;40.090;18.348;2023-02-22T17:54:36;21.20;;;10.70;;
65581;SDS011;52231;40.090;18.348;2023-02-22T17:57:05;16.30;;;9.35;;